Hlavní strana
METAR-TAF:

METAR-TAF

Letiště :

Bamako, Mali

zeměpisná šířka: 12-32N, zeměpisná délka: 007-57W, výška: 380 m

Aktuální stav počasí

Zpráva byla vytvořena před 35 minutami, v 08:00 UTC
Východoseverovýchodní vítr 4 kt
Teplota 20°C
Vlhkost vzduchu 40%
Tlak 1019 hPa
Viditelnost 10 km a více
Žádná oblačnost pod 1500 m, nevyskytují se cumulonimby.

METAR: GABS 100800Z 06004KT CAVOK 20/06 Q1019 NOSIG

Čas: 08:35 (08:35 UTC)

Předpověď počasí

Zpráva byla vytvořena před 3 hodinami a 35 minutami, v 05:00 UTC
Předpověď platná od 10 v 06 UTC do 11 v 12 UTC
Severovýchodní vítr 10 kt
Viditelnost 10 km a více
Žádná oblačnost pod 1500 m, nevyskytují se cumulonimby.

TAF: GABS 100500Z 1006/1112 05010KT CAVOK

Stav a předpovědi počasí z více než 4 000 letišť (zprávy METAR a TAF).

Červené a žluté tečky na mapě představují dostupné meteorologické stanice.

Když kurzor umístíte na tečku, zobrazí se název stanice.

Pak kliknutím zobrazíte stav a předpověď počasí.

Chcete-li změnit mapu, kliknutím na zelené tlačítko se znaménkem +mapu přiblížíte, kliknutím na zelené tlačítko se znaménkem – mapu oddálíte a kliknutím na zelené šipky přejdete na sousední mapy.


METAR-TAF: